Terminal Aerodrome Forecast
Issued by NWS Twin Cities, MN

Home | Current Version | Previous Version | Text Only | Print | Product List | Glossary Off
Versions: 1 2 3 4 5 6 7 8 9 10 11 12 13 14 15 16 17 18 19 20

128
FTUS43 KMPX 251133
TAFSTC
TAF
KSTC 251133Z 2512/2612 22004KT P6SM SKC
     FM251400 27007KT P6SM FEW030
     FM251700 29015G22KT P6SM BKN040
     FM260200 30004KT P6SM SKC
     FM261100 VRB02KT 2SM BR SKC=

USA.gov is the U.S. government's official web portal to all federal, state and local government web resources and services.